createdAt,value
2022-10-18T00:00:45.945Z,0.20
2022-10-18T00:03:12.582Z,0.30
2022-10-18T00:05:39.272Z,0.20
2022-10-18T00:08:06.045Z,0.20
2022-10-18T00:10:32.753Z,0.20
2022-10-18T00:12:59.561Z,0.10
2022-10-18T00:15:26.184Z,0.20
2022-10-18T00:17:52.880Z,0.30
2022-10-18T00:20:19.724Z,0.22
2022-10-18T00:22:46.680Z,0.35
2022-10-18T00:25:13.976Z,0.20
2022-10-18T00:27:40.681Z,0.20
2022-10-18T00:30:21.804Z,0.30
2022-10-18T00:32:48.529Z,0.20
2022-10-18T00:35:15.435Z,0.57
2022-10-18T00:37:42.182Z,0.10
2022-10-18T00:40:10.141Z,0.20
2022-10-18T00:42:37.899Z,0.30
2022-10-18T00:45:16.953Z,0.22
2022-10-18T00:47:48.220Z,0.32
2022-10-18T00:50:15.067Z,0.20
2022-10-18T00:52:45.754Z,0.50
2022-10-18T00:55:13.345Z,0.17
2022-10-18T00:57:43.271Z,0.10
2022-10-18T01:00:12.445Z,0.10
2022-10-18T01:02:41.666Z,0.45
2022-10-18T01:05:10.414Z,0.10
2022-10-18T01:08:00.044Z,0.13
2022-10-18T01:10:44.788Z,0.28
2022-10-18T01:13:33.645Z,0.20
2022-10-18T01:16:24.785Z,0.30
2022-10-18T01:18:57.620Z,0.20
2022-10-18T01:21:45.821Z,0.20
2022-10-18T01:24:33.685Z,0.30
2022-10-18T01:27:29.080Z,0.10
2022-10-18T01:30:34.882Z,0.28
2022-10-18T01:33:33.069Z,0.20
2022-10-18T01:36:07.854Z,0.30
2022-10-18T01:38:37.041Z,0.20
2022-10-18T01:41:08.029Z,0.20
2022-10-18T01:43:39.907Z,0.22
2022-10-18T01:46:08.994Z,0.45
2022-10-18T01:48:38.096Z,0.30
2022-10-18T01:51:05.848Z,0.22
2022-10-18T01:53:34.781Z,0.60
2022-10-18T01:56:16.720Z,0.82
2022-10-18T01:58:52.336Z,0.55
2022-10-18T02:01:39.909Z,0.35
2022-10-18T02:04:32.570Z,0.15
2022-10-18T02:07:09.785Z,0.52
2022-10-18T02:09:50.613Z,0.10
2022-10-18T02:12:19.387Z,0.38
2022-10-18T02:14:50.821Z,0.13
2022-10-18T02:17:20.045Z,0.10
2022-10-18T02:19:53.761Z,0.20
2022-10-18T02:22:23.082Z,0.20
2022-10-18T02:24:55.188Z,0.30
2022-10-18T02:27:22.665Z,0.20
2022-10-18T02:29:49.850Z,0.20
2022-10-18T02:32:22.526Z,0.20
2022-10-18T02:35:05.492Z,0.35
2022-10-18T02:37:38.763Z,0.35
2022-10-18T02:40:08.018Z,0.40
2022-10-18T02:42:46.272Z,0.55
2022-10-18T02:45:13.890Z,0.30
2022-10-18T02:47:40.799Z,0.20
2022-10-18T02:50:07.890Z,0.32
2022-10-18T02:52:34.557Z,0.70
2022-10-18T02:55:01.905Z,0.40
2022-10-18T02:57:28.749Z,0.40
2022-10-18T02:59:55.739Z,0.30
2022-10-18T03:02:22.478Z,0.32
2022-10-18T03:04:49.262Z,0.20
2022-10-18T03:07:16.297Z,0.50
2022-10-18T03:09:43.094Z,0.25
2022-10-18T03:12:09.795Z,0.25
2022-10-18T03:14:36.530Z,0.40
2022-10-18T03:17:03.300Z,0.20
2022-10-18T03:19:30.046Z,0.40
2022-10-18T03:21:56.733Z,0.30
2022-10-18T03:24:23.466Z,0.68
2022-10-18T03:26:50.106Z,0.55
2022-10-18T03:29:17.938Z,0.40
2022-10-18T03:31:44.601Z,0.30
2022-10-18T03:34:11.298Z,0.30
2022-10-18T03:36:38.885Z,0.40
2022-10-18T03:39:05.610Z,0.50
2022-10-18T03:41:32.294Z,0.20
2022-10-18T03:43:58.919Z,0.47
2022-10-18T03:46:25.661Z,0.68
2022-10-18T03:48:52.362Z,0.32
2022-10-18T03:51:19.058Z,0.30
2022-10-18T03:53:45.775Z,0.45
2022-10-18T03:56:12.497Z,0.40
2022-10-18T03:58:39.186Z,0.90
2022-10-18T04:01:05.985Z,0.40
2022-10-18T04:03:32.608Z,0.70
2022-10-18T04:06:00.796Z,0.40
2022-10-18T04:08:27.517Z,0.65
2022-10-18T04:10:54.244Z,0.20
2022-10-18T04:13:20.919Z,0.68
2022-10-18T04:15:47.669Z,0.30
2022-10-18T04:18:14.343Z,0.38
2022-10-18T04:20:41.023Z,0.60
2022-10-18T04:23:07.656Z,0.30
2022-10-18T04:25:34.409Z,0.40
2022-10-18T04:28:01.040Z,0.50
2022-10-18T04:30:27.837Z,0.38
2022-10-18T04:32:56.444Z,0.40
2022-10-18T04:35:25.939Z,0.30
2022-10-18T04:37:52.550Z,0.57
2022-10-18T04:40:20.064Z,0.45
2022-10-18T04:42:47.480Z,0.40
2022-10-18T04:45:14.231Z,0.50
2022-10-18T04:47:40.946Z,0.30
2022-10-18T04:50:08.003Z,0.40
2022-10-18T04:52:34.786Z,0.60
2022-10-18T04:55:01.423Z,0.50
2022-10-18T04:57:28.177Z,0.55
2022-10-18T04:59:54.822Z,0.45
2022-10-18T05:02:21.551Z,0.30
2022-10-18T05:04:48.156Z,0.77
2022-10-18T05:07:14.916Z,0.50
2022-10-18T05:09:41.556Z,0.60
2022-10-18T05:12:08.480Z,0.50
2022-10-18T05:14:35.180Z,0.85
2022-10-18T05:17:01.941Z,0.50
2022-10-18T05:19:28.645Z,0.70
2022-10-18T05:21:55.396Z,0.40
2022-10-18T05:24:24.211Z,0.70
2022-10-18T05:26:54.334Z,0.35
2022-10-18T05:29:21.154Z,0.40
2022-10-18T05:31:49.176Z,0.25
2022-10-18T05:34:16.606Z,0.40
2022-10-18T05:36:44.046Z,0.68
2022-10-18T05:39:10.726Z,0.80
2022-10-18T05:41:37.375Z,0.60
2022-10-18T05:44:05.902Z,0.90
2022-10-18T05:46:33.395Z,0.45
2022-10-18T05:49:00.103Z,0.90
2022-10-18T05:51:26.777Z,0.70
2022-10-18T05:53:54.824Z,0.40
2022-10-18T05:56:21.536Z,0.50
2022-10-18T05:58:51.701Z,1.08
2022-10-18T06:01:18.799Z,0.40
2022-10-18T06:03:45.475Z,0.43
2022-10-18T06:06:13.533Z,0.57
2022-10-18T06:08:41.939Z,0.60
2022-10-18T06:11:11.080Z,0.60
2022-10-18T06:13:45.994Z,0.77
2022-10-18T06:16:15.384Z,0.40
2022-10-18T06:18:42.609Z,0.47
2022-10-18T06:21:09.911Z,0.98
2022-10-18T06:23:36.946Z,0.80
2022-10-18T06:26:06.491Z,0.52
2022-10-18T06:28:35.864Z,0.68
2022-10-18T06:31:03.718Z,0.85
2022-10-18T06:33:35.322Z,0.80
2022-10-18T06:36:07.357Z,0.73
2022-10-18T06:38:35.658Z,1.25
2022-10-18T06:41:03.657Z,0.80
2022-10-18T06:43:30.447Z,1.10
2022-10-18T06:45:57.616Z,0.73
2022-10-18T06:48:24.434Z,0.70
2022-10-18T06:50:57.008Z,0.90
2022-10-18T06:53:26.131Z,1.10
2022-10-18T06:55:53.362Z,0.63
2022-10-18T06:58:20.107Z,0.70
2022-10-18T07:00:47.621Z,0.80
2022-10-18T07:03:14.393Z,0.90
2022-10-18T07:05:41.118Z,1.08
2022-10-18T07:08:07.858Z,0.70
2022-10-18T07:10:34.585Z,0.55
2022-10-18T07:13:20.025Z,0.60
2022-10-18T07:15:47.952Z,0.82
2022-10-18T07:18:14.638Z,1.23
2022-10-18T07:20:41.358Z,2.08
2022-10-18T07:23:09.514Z,1.02
2022-10-18T07:25:36.226Z,0.80
2022-10-18T07:28:02.902Z,0.70
2022-10-18T07:30:29.603Z,1.60
2022-10-18T07:32:56.290Z,1.13
2022-10-18T07:35:22.976Z,0.73
2022-10-18T07:37:49.672Z,0.95
2022-10-18T07:40:16.582Z,1.00
2022-10-18T07:42:43.233Z,0.75
2022-10-18T07:45:12.507Z,0.77
2022-10-18T07:47:39.780Z,0.88
2022-10-18T07:50:07.374Z,0.98
2022-10-18T07:52:34.184Z,0.85
2022-10-18T07:55:00.906Z,1.27
2022-10-18T07:57:27.634Z,1.75
2022-10-18T07:59:56.991Z,1.23
2022-10-18T08:02:24.478Z,1.10
2022-10-18T08:04:51.256Z,1.25
2022-10-18T08:07:18.055Z,0.85
2022-10-18T08:09:44.735Z,1.23
2022-10-18T08:12:11.490Z,1.23
2022-10-18T08:14:38.152Z,1.38
2022-10-18T08:17:04.845Z,1.17
2022-10-18T08:19:31.531Z,0.70
2022-10-18T08:21:58.414Z,1.50
2022-10-18T08:24:25.347Z,1.40
2022-10-18T08:26:51.989Z,0.90
2022-10-18T08:29:23.892Z,0.90
2022-10-18T08:31:52.594Z,0.95
2022-10-18T08:34:19.948Z,1.27
2022-10-18T08:36:47.085Z,0.90
2022-10-18T08:39:13.855Z,1.40
2022-10-18T08:41:43.420Z,1.48
2022-10-18T08:44:27.586Z,1.27
2022-10-18T08:47:07.344Z,1.00
2022-10-18T08:50:02.583Z,0.60
2022-10-18T08:52:53.526Z,0.70
2022-10-18T08:55:29.214Z,0.95
2022-10-18T08:57:58.292Z,0.98
2022-10-18T09:00:30.630Z,0.80
2022-10-18T09:03:34.126Z,0.90
2022-10-18T09:06:03.906Z,0.88
2022-10-18T09:08:52.359Z,1.27
2022-10-18T09:11:21.814Z,1.40
2022-10-18T09:14:16.498Z,0.75
2022-10-18T09:16:59.061Z,0.60
2022-10-18T09:19:38.087Z,0.98
2022-10-18T09:22:17.588Z,0.90
2022-10-18T09:24:56.259Z,0.70
2022-10-18T09:27:35.851Z,0.70
2022-10-18T09:30:20.000Z,0.98
2022-10-18T09:33:18.718Z,0.93
2022-10-18T09:36:22.044Z,0.80
2022-10-18T09:38:55.139Z,1.05
2022-10-18T09:41:27.923Z,0.80
2022-10-18T09:44:03.461Z,0.95
2022-10-18T09:46:39.189Z,1.63
2022-10-18T09:49:19.499Z,0.65
2022-10-18T09:51:49.340Z,1.08
2022-10-18T09:54:34.064Z,0.85
2022-10-18T09:57:06.240Z,1.00
2022-10-18T09:59:49.408Z,1.17
2022-10-18T10:02:19.389Z,0.90
2022-10-18T10:04:46.171Z,1.08
2022-10-18T10:07:18.286Z,1.13
2022-10-18T10:09:55.876Z,1.00
2022-10-18T10:12:32.347Z,1.00
2022-10-18T10:15:29.535Z,1.20
2022-10-18T10:18:06.887Z,1.25
2022-10-18T10:20:48.610Z,0.95
2022-10-18T10:23:39.618Z,0.77
2022-10-18T10:26:27.590Z,1.05
2022-10-18T10:28:54.713Z,1.95
2022-10-18T10:31:24.624Z,1.15
2022-10-18T10:34:05.160Z,1.30
2022-10-18T10:36:33.632Z,1.40
2022-10-18T10:39:05.981Z,1.13
2022-10-18T10:41:33.563Z,1.38
2022-10-18T10:44:03.974Z,0.98
2022-10-18T10:46:36.571Z,1.10
2022-10-18T10:49:35.071Z,1.25
2022-10-18T10:52:15.453Z,1.27
2022-10-18T10:54:52.511Z,1.50
2022-10-18T10:57:26.080Z,1.35
2022-10-18T10:59:55.560Z,1.55
2022-10-18T11:02:29.780Z,1.05
2022-10-18T11:05:15.195Z,1.17
2022-10-18T11:07:46.492Z,1.88
2022-10-18T11:12:54.310Z,1.02
2022-10-18T11:15:43.035Z,1.00
2022-10-18T11:18:25.755Z,0.70
2022-10-18T11:21:19.115Z,1.27
2022-10-18T11:23:46.065Z,0.70
2022-10-18T11:26:12.744Z,1.17
2022-10-18T11:28:58.363Z,1.13
2022-10-18T11:31:35.826Z,0.70
2022-10-18T11:34:17.792Z,1.00
2022-10-18T11:36:56.291Z,1.13
2022-10-18T11:40:06.186Z,1.40
2022-10-18T11:42:49.935Z,1.35
2022-10-18T11:45:42.995Z,1.30
2022-10-18T11:48:19.519Z,1.30
2022-10-18T11:51:11.178Z,1.27
2022-10-18T11:56:32.707Z,1.10
2022-10-18T11:59:08.248Z,0.90
2022-10-18T12:01:38.202Z,1.20
2022-10-18T12:04:09.268Z,1.00
2022-10-18T12:06:41.901Z,1.20
2022-10-18T12:09:25.379Z,1.35
2022-10-18T12:12:02.931Z,0.90
2022-10-18T12:14:35.183Z,1.00
2022-10-18T12:17:40.791Z,0.88
2022-10-18T12:20:02.782Z,0.90
2022-10-18T12:22:39.759Z,1.65
2022-10-18T12:25:19.298Z,1.42
2022-10-18T12:28:02.750Z,1.50
2022-10-18T12:31:06.949Z,0.80
2022-10-18T12:33:41.997Z,2.25
2022-10-18T12:36:39.060Z,1.02
2022-10-18T12:39:12.630Z,1.45
2022-10-18T12:41:39.441Z,1.15
2022-10-18T12:44:33.565Z,0.95
2022-10-18T12:47:03.408Z,1.25
2022-10-18T12:49:31.660Z,0.93
2022-10-18T12:52:01.708Z,1.10
2022-10-18T12:54:39.730Z,1.40
2022-10-18T12:57:22.560Z,1.20
2022-10-18T12:59:49.781Z,1.67
2022-10-18T13:02:22.285Z,1.13
2022-10-18T13:04:49.223Z,1.05
2022-10-18T13:07:32.489Z,1.38
2022-10-18T13:10:12.414Z,1.10
2022-10-18T13:12:47.807Z,0.93
2022-10-18T13:15:53.894Z,0.90
2022-10-18T13:18:36.386Z,1.23
2022-10-18T13:21:14.287Z,1.05
2022-10-18T13:24:07.142Z,1.50
2022-10-18T13:27:18.140Z,1.33
2022-10-18T13:30:27.714Z,0.80
2022-10-18T13:33:31.487Z,1.48
2022-10-18T13:35:59.855Z,1.23
2022-10-18T13:38:48.666Z,1.05
2022-10-18T13:41:21.020Z,1.50
2022-10-18T13:43:56.918Z,1.27
2022-10-18T13:46:32.715Z,1.83
2022-10-18T13:49:17.842Z,1.45
2022-10-18T13:51:49.957Z,1.40
2022-10-18T13:54:38.629Z,1.30
2022-10-18T13:57:14.415Z,1.05
2022-10-18T14:00:02.924Z,1.17
2022-10-18T14:03:00.024Z,1.10
2022-10-18T14:05:42.057Z,1.08
2022-10-18T14:08:16.556Z,1.25
2022-10-18T14:11:01.252Z,1.13
2022-10-18T14:13:39.040Z,1.65
2022-10-18T14:16:37.087Z,0.90
2022-10-18T14:19:25.471Z,1.00
2022-10-18T14:22:21.227Z,1.08
2022-10-18T14:24:52.834Z,1.75
2022-10-18T14:27:22.452Z,1.45
2022-10-18T14:29:51.018Z,1.48
2022-10-18T14:32:28.349Z,1.08
2022-10-18T14:35:27.304Z,1.65
2022-10-18T14:37:43.387Z,1.25
2022-10-18T14:40:28.827Z,1.90
2022-10-18T14:42:55.565Z,1.98
2022-10-18T14:45:23.856Z,1.40
2022-10-18T14:47:50.515Z,1.17
2022-10-18T14:50:30.701Z,1.40
2022-10-18T14:52:57.775Z,1.45
2022-10-18T14:55:28.690Z,1.48
2022-10-18T14:57:55.494Z,1.67
2022-10-18T15:00:33.935Z,1.83
2022-10-18T15:03:03.646Z,1.38
2022-10-18T15:05:30.795Z,1.98
2022-10-18T15:08:00.118Z,1.50
2022-10-18T15:10:33.095Z,1.80
2022-10-18T15:13:11.214Z,1.02
2022-10-18T15:15:39.387Z,1.17
2022-10-18T15:18:08.176Z,1.48
2022-10-18T15:20:42.392Z,1.02
2022-10-18T15:23:26.047Z,1.27
2022-10-18T15:26:00.708Z,1.38
2022-10-18T15:28:36.067Z,1.52
2022-10-18T15:31:03.327Z,1.10
2022-10-18T15:33:34.573Z,1.40
2022-10-18T15:38:38.704Z,2.15
2022-10-18T15:41:38.518Z,1.13
2022-10-18T15:44:38.681Z,1.27
2022-10-18T15:47:20.270Z,1.75
2022-10-18T15:52:36.665Z,1.13
2022-10-18T15:55:29.592Z,1.25
2022-10-18T16:00:33.273Z,0.68
2022-10-18T16:03:00.031Z,1.00
2022-10-18T16:05:27.254Z,0.80
2022-10-18T16:07:54.061Z,0.70
2022-10-18T16:10:20.951Z,1.35
2022-10-18T16:12:48.814Z,1.33
2022-10-18T16:15:15.589Z,1.40
2022-10-18T16:17:42.434Z,0.80
2022-10-18T16:20:21.216Z,1.10
2022-10-18T16:22:48.138Z,0.70
2022-10-18T16:25:14.902Z,0.90
2022-10-18T16:27:41.677Z,0.77
2022-10-18T16:30:15.997Z,0.82
2022-10-18T16:32:42.763Z,0.93
2022-10-18T16:35:10.254Z,1.13
2022-10-18T16:37:38.297Z,0.90
2022-10-18T16:40:31.616Z,1.00
2022-10-18T16:42:58.356Z,0.80
2022-10-18T16:45:24.996Z,1.40
2022-10-18T16:47:51.705Z,0.60
2022-10-18T16:50:20.424Z,0.90
2022-10-18T16:52:47.184Z,1.35
2022-10-18T16:55:16.465Z,1.75
2022-10-18T16:57:43.708Z,2.08
2022-10-18T17:00:20.695Z,2.20
2022-10-18T17:02:48.496Z,1.70
2022-10-18T17:05:19.066Z,1.63
2022-10-18T17:07:47.299Z,1.20
2022-10-18T17:10:18.302Z,1.65
2022-10-18T17:12:45.392Z,1.60
2022-10-18T17:15:12.930Z,1.85
2022-10-18T17:17:39.857Z,2.05
2022-10-18T17:20:08.353Z,1.92
2022-10-18T17:22:35.126Z,2.63
2022-10-18T17:25:01.817Z,2.40
2022-10-18T17:27:28.504Z,2.22
2022-10-18T17:29:55.196Z,2.35
2022-10-18T17:32:21.989Z,1.27
2022-10-18T17:34:48.683Z,1.17
2022-10-18T17:37:15.456Z,1.38
2022-10-18T17:39:42.168Z,1.30
2022-10-18T17:42:08.962Z,1.52
2022-10-18T17:44:36.825Z,2.88
2022-10-18T17:47:03.795Z,1.80
2022-10-18T17:49:30.563Z,1.98
2022-10-18T17:51:57.284Z,2.20
2022-10-18T17:54:23.921Z,3.17
2022-10-18T17:56:53.829Z,2.88
2022-10-18T17:59:21.471Z,2.15
2022-10-18T18:01:48.236Z,1.65
2022-10-18T18:04:17.061Z,1.88
2022-10-18T18:06:45.422Z,1.67
2022-10-18T18:09:16.685Z,2.70
2022-10-18T18:11:44.857Z,2.08
2022-10-18T18:14:12.035Z,2.30
2022-10-18T18:16:42.222Z,2.55
2022-10-18T18:19:10.021Z,2.55
2022-10-18T18:21:37.263Z,2.60
2022-10-18T18:24:04.621Z,2.63
2022-10-18T18:26:33.361Z,2.33
2022-10-18T18:31:30.780Z,1.92
2022-10-18T18:34:01.105Z,2.00
2022-10-18T18:36:32.571Z,2.53
2022-10-18T18:38:59.927Z,2.20
2022-10-18T18:41:28.172Z,2.85
2022-10-18T18:44:04.205Z,1.95
2022-10-18T18:46:36.636Z,1.77
2022-10-18T18:49:03.454Z,2.65
2022-10-18T18:51:30.259Z,2.60
2022-10-18T18:53:56.895Z,3.22
2022-10-18T18:56:25.802Z,2.83
2022-10-18T18:58:53.480Z,2.90
2022-10-18T19:01:25.733Z,2.90
2022-10-18T19:03:55.539Z,1.92
2022-10-18T19:06:28.454Z,2.65
2022-10-18T19:09:01.477Z,2.50
2022-10-18T19:11:32.521Z,2.08
2022-10-18T19:14:00.050Z,2.35
2022-10-18T19:16:29.018Z,2.53
2022-10-18T19:18:55.705Z,3.55
2022-10-18T19:21:30.949Z,2.97
2022-10-18T19:24:00.889Z,2.08
2022-10-18T19:26:50.176Z,2.53
2022-10-18T19:29:27.083Z,2.55
2022-10-18T19:31:56.225Z,2.85
2022-10-18T19:34:24.524Z,1.77
2022-10-18T19:36:52.216Z,2.42
2022-10-18T19:39:42.169Z,3.17
2022-10-18T19:42:16.076Z,2.40
2022-10-18T19:44:45.907Z,2.22
2022-10-18T19:47:14.355Z,2.03
2022-10-18T19:49:42.916Z,2.25
2022-10-18T19:52:12.132Z,3.05
2022-10-18T19:54:39.156Z,3.50
2022-10-18T19:57:05.834Z,2.75
2022-10-18T19:59:32.610Z,2.95
2022-10-18T20:02:04.498Z,2.75
2022-10-18T20:04:34.551Z,2.67
2022-10-18T20:07:02.834Z,3.08
2022-10-18T20:09:29.795Z,2.75
2022-10-18T20:11:56.648Z,2.70
2022-10-18T20:14:23.448Z,2.28
2022-10-18T20:16:50.171Z,2.50
2022-10-18T20:19:16.879Z,2.55
2022-10-18T20:21:43.668Z,2.47
2022-10-18T20:24:11.401Z,2.90
2022-10-18T20:26:39.539Z,2.50
2022-10-18T20:29:07.671Z,2.33
2022-10-18T20:31:38.579Z,2.78
2022-10-18T20:34:08.234Z,3.05
2022-10-18T20:36:35.309Z,4.00
2022-10-18T20:39:02.533Z,3.22
2022-10-18T20:41:34.782Z,3.63
2022-10-18T20:44:05.071Z,3.15
2022-10-18T20:49:17.822Z,3.15
2022-10-18T20:51:44.880Z,2.33
2022-10-18T20:54:12.256Z,2.83
2022-10-18T20:56:39.469Z,2.70
2022-10-18T20:59:09.842Z,2.92
2022-10-18T21:01:38.709Z,2.55
2022-10-18T21:04:07.820Z,2.53
2022-10-18T21:06:37.209Z,2.65
2022-10-18T21:09:14.882Z,2.58
2022-10-18T21:11:44.959Z,2.13
2022-10-18T21:14:14.007Z,2.40
2022-10-18T21:16:41.177Z,2.60
2022-10-18T21:19:13.433Z,2.60
2022-10-18T21:21:45.929Z,2.42
2022-10-18T21:24:15.160Z,1.98
2022-10-18T21:26:42.017Z,2.25
2022-10-18T21:29:09.908Z,1.98
2022-10-18T21:31:39.907Z,1.90
2022-10-18T21:34:15.316Z,1.52
2022-10-18T21:36:44.243Z,1.92
2022-10-18T21:39:15.300Z,2.22
2022-10-18T21:41:42.793Z,2.17
2022-10-18T21:44:11.334Z,2.03
2022-10-18T21:46:43.185Z,2.38
2022-10-18T21:49:10.396Z,3.13
2022-10-18T21:51:37.688Z,1.77
2022-10-18T21:54:04.515Z,1.88
2022-10-18T21:56:33.836Z,2.13
2022-10-18T21:59:01.381Z,2.40
2022-10-18T22:01:34.196Z,1.63
2022-10-18T22:04:06.222Z,1.67
2022-10-18T22:09:09.999Z,2.85
2022-10-18T22:11:41.075Z,1.80
2022-10-18T22:14:08.381Z,1.50
2022-10-18T22:16:35.113Z,1.45
2022-10-18T22:19:04.537Z,1.80
2022-10-18T22:21:31.324Z,1.45
2022-10-18T22:23:59.121Z,2.40
2022-10-18T22:26:30.849Z,2.60
2022-10-18T22:29:04.412Z,1.90
2022-10-18T22:31:34.701Z,1.98
2022-10-18T22:34:06.658Z,2.13
2022-10-18T22:36:34.517Z,2.60
2022-10-18T22:39:01.769Z,2.20
2022-10-18T22:41:28.624Z,2.10
2022-10-18T22:43:57.403Z,1.70
2022-10-18T22:46:26.822Z,2.67
2022-10-18T22:48:53.684Z,2.45
2022-10-18T22:51:20.397Z,3.20
2022-10-18T22:53:47.188Z,2.40
2022-10-18T22:56:17.518Z,2.53
2022-10-18T22:58:44.282Z,2.25
2022-10-18T23:01:13.571Z,2.20
2022-10-18T23:03:40.763Z,2.03
2022-10-18T23:06:25.535Z,2.88
2022-10-18T23:08:53.997Z,2.03
2022-10-18T23:11:21.578Z,2.28
2022-10-18T23:13:48.753Z,2.10
2022-10-18T23:16:16.338Z,2.05
2022-10-18T23:18:43.115Z,2.30
2022-10-18T23:21:12.160Z,1.98
2022-10-18T23:23:41.243Z,2.42
2022-10-18T23:26:10.716Z,1.70
2022-10-18T23:28:39.724Z,3.15
2022-10-18T23:31:19.020Z,2.25
2022-10-18T23:33:47.922Z,2.38
2022-10-18T23:36:15.361Z,2.72
2022-10-18T23:38:42.566Z,2.25
2022-10-18T23:41:11.082Z,2.22
2022-10-18T23:43:38.404Z,3.17
2022-10-18T23:46:05.935Z,2.22
2022-10-18T23:48:34.234Z,2.35
2022-10-18T23:51:01.681Z,2.22
2022-10-18T23:53:28.431Z,2.65
2022-10-18T23:55:59.387Z,2.10
2022-10-18T23:58:27.669Z,2.33
